sensor_id;sensor_type;location;lat;lon;timestamp;P1;durP1;ratioP1;P2;durP2;ratioP2
18340;SDS011;9296;48.084;16.352;2024-03-02T12:24:59;50.38;;;32.35;;
18340;SDS011;9296;48.084;16.352;2024-03-02T12:39:56;54.17;;;35.22;;
18340;SDS011;9296;48.084;16.352;2024-03-02T12:45:42;54.75;;;34.63;;
18340;SDS011;9296;48.084;16.352;2024-03-02T12:48:11;53.72;;;33.65;;
18340;SDS011;9296;48.084;16.352;2024-03-02T12:58:58;49.90;;;32.58;;
18340;SDS011;9296;48.084;16.352;2024-03-02T13:01:27;51.35;;;32.85;;
18340;SDS011;9296;48.084;16.352;2024-03-02T13:03:56;55.28;;;33.53;;
18340;SDS011;9296;48.084;16.352;2024-03-02T13:06:50;50.35;;;32.88;;
18340;SDS011;9296;48.084;16.352;2024-03-02T13:09:31;52.13;;;33.30;;
18340;SDS011;9296;48.084;16.352;2024-03-02T13:11:59;50.20;;;33.17;;
18340;SDS011;9296;48.084;16.352;2024-03-02T13:14:41;51.40;;;32.92;;
18340;SDS011;9296;48.084;16.352;2024-03-02T13:17:10;49.70;;;33.03;;
18340;SDS011;9296;48.084;16.352;2024-03-02T13:19:56;51.67;;;32.67;;
18340;SDS011;9296;48.084;16.352;2024-03-02T13:22:38;49.15;;;33.10;;
18340;SDS011;9296;48.084;16.352;2024-03-02T13:45:22;50.40;;;33.15;;
18340;SDS011;9296;48.084;16.352;2024-03-02T17:06:29;55.72;;;33.08;;
18340;SDS011;9296;48.084;16.352;2024-03-02T17:09:15;57.50;;;34.60;;
18340;SDS011;9296;48.084;16.352;2024-03-02T17:11:58;58.60;;;34.25;;
18340;SDS011;9296;48.084;16.352;2024-03-02T17:14:42;58.95;;;33.85;;
18340;SDS011;9296;48.084;16.352;2024-03-02T17:37:34;62.55;;;35.30;;
18340;SDS011;9296;48.084;16.352;2024-03-02T17:40:22;68.03;;;34.63;;
18340;SDS011;9296;48.084;16.352;2024-03-02T17:48:14;69.10;;;37.72;;
18340;SDS011;9296;48.084;16.352;2024-03-02T17:54:06;71.15;;;36.92;;
18340;SDS011;9296;48.084;16.352;2024-03-02T17:56:40;75.05;;;38.55;;
18340;SDS011;9296;48.084;16.352;2024-03-02T17:59:13;67.80;;;37.20;;
18340;SDS011;9296;48.084;16.352;2024-03-02T18:01:43;73.47;;;37.15;;
18340;SDS011;9296;48.084;16.352;2024-03-02T18:47:17;69.82;;;35.47;;
18340;SDS011;9296;48.084;16.352;2024-03-02T18:50:00;70.45;;;35.13;;
18340;SDS011;9296;48.084;16.352;2024-03-02T18:55:26;64.40;;;34.67;;
18340;SDS011;9296;48.084;16.352;2024-03-02T18:58:08;64.97;;;34.05;;
18340;SDS011;9296;48.084;16.352;2024-03-02T19:00:40;65.22;;;34.42;;
18340;SDS011;9296;48.084;16.352;2024-03-02T19:03:10;60.67;;;33.45;;
18340;SDS011;9296;48.084;16.352;2024-03-02T19:05:38;66.55;;;34.58;;
18340;SDS011;9296;48.084;16.352;2024-03-02T19:08:35;63.70;;;33.17;;
18340;SDS011;9296;48.084;16.352;2024-03-02T19:11:15;63.25;;;32.55;;
18340;SDS011;9296;48.084;16.352;2024-03-02T19:13:46;61.20;;;33.22;;
18340;SDS011;9296;48.084;16.352;2024-03-02T19:16:14;61.00;;;32.60;;
18340;SDS011;9296;48.084;16.352;2024-03-02T19:28:43;64.50;;;32.17;;
18340;SDS011;9296;48.084;16.352;2024-03-02T19:31:22;65.38;;;32.50;;
18340;SDS011;9296;48.084;16.352;2024-03-02T19:34:04;63.50;;;32.83;;
18340;SDS011;9296;48.084;16.352;2024-03-02T19:39:30;66.20;;;32.00;;
18340;SDS011;9296;48.084;16.352;2024-03-02T19:42:20;67.72;;;32.33;;
18340;SDS011;9296;48.084;16.352;2024-03-02T19:45:03;64.15;;;32.92;;
18340;SDS011;9296;48.084;16.352;2024-03-02T19:47:56;71.55;;;33.72;;
18340;SDS011;9296;48.084;16.352;2024-03-02T19:50:37;66.03;;;32.88;;
18340;SDS011;9296;48.084;16.352;2024-03-02T19:56:16;65.47;;;31.75;;
18340;SDS011;9296;48.084;16.352;2024-03-02T19:59:09;65.03;;;32.08;;
18340;SDS011;9296;48.084;16.352;2024-03-02T20:01:56;68.03;;;34.13;;
18340;SDS011;9296;48.084;16.352;2024-03-02T20:09:51;64.80;;;32.35;;
18340;SDS011;9296;48.084;16.352;2024-03-02T20:12:21;62.53;;;32.05;;
18340;SDS011;9296;48.084;16.352;2024-03-02T20:14:49;61.25;;;31.70;;
18340;SDS011;9296;48.084;16.352;2024-03-02T20:17:24;63.83;;;32.33;;
18340;SDS011;9296;48.084;16.352;2024-03-02T20:20:12;65.72;;;32.72;;
18340;SDS011;9296;48.084;16.352;2024-03-02T20:29:02;68.55;;;31.63;;
18340;SDS011;9296;48.084;16.352;2024-03-02T20:31:36;66.45;;;32.78;;
18340;SDS011;9296;48.084;16.352;2024-03-02T20:34:11;74.47;;;34.42;;
18340;SDS011;9296;48.084;16.352;2024-03-02T20:36:43;67.70;;;33.88;;
18340;SDS011;9296;48.084;16.352;2024-03-02T20:45:20;67.43;;;34.22;;
18340;SDS011;9296;48.084;16.352;2024-03-02T20:47:51;72.88;;;34.90;;
18340;SDS011;9296;48.084;16.352;2024-03-02T20:50:26;69.28;;;33.53;;
18340;SDS011;9296;48.084;16.352;2024-03-02T20:52:54;67.70;;;33.35;;
18340;SDS011;9296;48.084;16.352;2024-03-02T20:55:28;66.25;;;32.92;;
18340;SDS011;9296;48.084;16.352;2024-03-02T20:58:02;68.57;;;34.25;;
18340;SDS011;9296;48.084;16.352;2024-03-02T21:00:39;70.18;;;33.83;;
18340;SDS011;9296;48.084;16.352;2024-03-02T21:03:08;70.75;;;33.60;;
18340;SDS011;9296;48.084;16.352;2024-03-02T21:45:42;77.95;;;35.70;;
18340;SDS011;9296;48.084;16.352;2024-03-02T21:48:13;75.53;;;34.58;;
18340;SDS011;9296;48.084;16.352;2024-03-02T21:50:41;70.30;;;33.60;;
18340;SDS011;9296;48.084;16.352;2024-03-02T21:53:10;71.20;;;34.17;;
18340;SDS011;9296;48.084;16.352;2024-03-02T21:55:38;74.47;;;35.50;;
18340;SDS011;9296;48.084;16.352;2024-03-02T21:58:10;74.40;;;35.20;;
18340;SDS011;9296;48.084;16.352;2024-03-02T22:00:37;76.97;;;37.15;;
18340;SDS011;9296;48.084;16.352;2024-03-02T22:22:56;83.65;;;37.53;;
18340;SDS011;9296;48.084;16.352;2024-03-02T22:25:26;85.68;;;37.92;;
18340;SDS011;9296;48.084;16.352;2024-03-02T22:27:54;90.55;;;39.78;;
18340;SDS011;9296;48.084;16.352;2024-03-02T22:30:21;87.93;;;40.08;;
18340;SDS011;9296;48.084;16.352;2024-03-02T22:32:52;88.47;;;39.25;;
18340;SDS011;9296;48.084;16.352;2024-03-02T22:35:25;82.50;;;39.10;;
18340;SDS011;9296;48.084;16.352;2024-03-02T22:38:10;89.15;;;40.47;;
18340;SDS011;9296;48.084;16.352;2024-03-02T22:40:52;87.65;;;39.72;;
18340;SDS011;9296;48.084;16.352;2024-03-02T22:43:20;87.95;;;40.13;;
18340;SDS011;9296;48.084;16.352;2024-03-02T22:45:56;88.40;;;40.28;;
18340;SDS011;9296;48.084;16.352;2024-03-02T22:51:19;90.57;;;41.00;;
